Terminal Aerodrome Forecast
Issued by NWS

Current Version | Previous Version | Text Only | Print | Product List | Glossary On
Versions: 1 2 3 4 5 6 7 8 9 10 11 12 13
157
FTUS46 KSEW 071120
TAFCLM
TAF
KCLM 071120Z 0712/0812 VRB03KT P6SM SCT040 BKN100
     FM071300 VRB03KT P6SM VCSH SCT018 OVC040
     FM072200 10003KT P6SM BKN050
     FM080200 VRB03KT P6SM SCT050 OVC100
     FM080800 20004KT P6SM SCT050 BKN200=

USA.gov is the U.S. government's official web portal to all federal, state and local government web resources and services.